Time;durP1;ratioP1;P1;durP2;ratioP2;P2;SDS_P1;SDS_P2;PMS_P1;PMS_P2;Temp;Humidity;BMP_temperature;BMP_pressure;BME280_temperature;BME280_humidity;BME280_pressure;Samples;Min_cycle;Max_cycle;Signal;HPM_P1;HPM_P2
2022/05/26 00:01:08;;;;;;;4.93;2.33;;;;;;;15.89;69.30;101501.19;3575355;40;20432;-63
2022/05/26 00:03:42;;;;;;;4.68;2.20;;;;;;;15.80;69.41;101492.88;3575977;40;20049;-64
2022/05/26 00:06:12;;;;;;;3.92;2.35;;;;;;;15.76;70.20;101498.53;3578570;40;20329;-63
2022/05/26 00:08:38;;;;;;;4.93;1.90;;;;;;;15.78;70.10;101504.69;3575688;40;20041;-64
2022/05/26 00:11:15;;;;;;;3.45;2.17;;;;;;;15.72;69.74;101505.13;3576927;40;20083;-64
2022/05/26 00:13:41;;;;;;;4.63;2.55;;;;;;;15.73;70.51;101503.28;3575798;40;20307;-63
2022/05/26 00:16:07;;;;;;;4.47;2.40;;;;;;;15.76;70.01;101500.34;3579952;40;20560;-64
2022/05/26 00:18:33;;;;;;;3.40;2.20;;;;;;;15.71;70.54;101502.53;3578283;40;20121;-64
2022/05/26 00:20:59;;;;;;;5.05;2.17;;;;;;;15.70;70.57;101503.53;3578239;40;20072;-64
2022/05/26 00:23:25;;;;;;;4.88;2.70;;;;;;;15.71;70.79;101502.53;3578298;40;20052;-64
2022/05/26 00:25:51;;;;;;;5.20;2.40;;;;;;;15.71;70.48;101499.84;3579849;40;20048;-63
2022/05/26 00:28:16;;;;;;;4.78;2.50;;;;;;;15.73;70.81;101511.41;3575033;40;20130;-64
2022/05/26 00:30:42;;;;;;;5.93;2.80;;;;;;;15.70;70.86;101506.25;3576816;40;20057;-64
2022/05/26 00:33:09;;;;;;;7.32;2.30;;;;;;;15.22;70.53;101424.75;3582438;40;20052;-64
2022/05/26 00:35:40;;;;;;;5.13;2.65;;;;;;;15.72;70.51;101512.41;3578323;40;20393;-64
2022/05/26 00:38:12;;;;;;;7.40;2.80;;;;;;;15.72;70.87;101515.09;3579829;40;20407;-64
2022/05/26 00:40:39;;;;;;;5.80;2.67;;;;;;;15.72;70.84;101520.53;3575290;40;20060;-64
2022/05/26 00:43:07;;;;;;;7.97;3.13;;;;;;;15.75;70.72;101512.19;3576318;40;20056;-64
2022/05/26 00:45:50;;;;;;;8.43;2.90;;;;;;;15.76;70.80;101516.59;3583557;40;20051;-64
2022/05/26 00:48:22;;;;;;;6.70;3.00;;;;;;;15.68;71.07;101505.47;3578441;40;20315;-63
2022/05/26 00:50:55;;;;;;;8.65;3.00;;;;;;;15.77;70.77;101516.50;3580869;40;20600;-63
2022/05/26 00:53:47;;;;;;;8.32;3.25;;;;;;;15.76;70.92;101512.09;3577471;40;20057;-64
2022/05/26 00:56:35;;;;;;;6.43;3.15;;;;;;;15.75;71.26;101520.31;3577165;40;20052;-64
2022/05/26 00:59:23;;;;;;;9.73;3.40;;;;;;;15.75;71.14;101521.16;3574631;40;20048;-64
2022/05/26 01:01:49;;;;;;;4.82;2.63;;;;;;;15.75;71.06;101518.47;3575143;40;20068;-64
2022/05/26 01:04:22;;;;;;;8.88;3.17;;;;;;;15.74;70.99;101524.88;3575085;40;20391;-62
2022/05/26 01:07:17;;;;;;;;;;;;;;;15.73;70.88;101511.41;3582681;40;20058;-63
2022/05/26 01:09:42;;;;;;;7.47;3.28;;;;;;;15.72;71.17;101515.97;3574906;40;19928;-63
2022/05/26 01:12:08;;;;;;;8.35;3.67;;;;;;;15.74;70.92;101524.00;3574573;40;20055;-63
2022/05/26 01:14:43;;;;;;;10.20;3.28;;;;;;;15.77;71.23;101524.66;3574940;40;20049;-63
2022/05/26 01:17:55;;;;;;;9.20;3.53;;;;;;;15.77;71.33;101519.22;3578102;40;20049;-63
2022/05/26 01:20:33;;;;;;;9.55;3.45;;;;;;;15.78;71.18;101522.78;3576707;40;20055;-63
2022/05/26 01:23:46;;;;;;;11.90;3.58;;;;;;;15.78;71.08;101522.78;3576368;40;20045;-63
2022/05/26 01:26:14;;;;;;;7.07;3.35;;;;;;;15.81;70.98;101524.44;3580229;40;20355;-63
2022/05/26 01:29:01;;;;;;;10.43;3.65;;;;;;;15.82;70.98;101527.00;3577639;40;20124;-63
2022/05/26 01:31:42;;;;;;;11.77;4.00;;;;;;;15.82;70.93;101534.28;3574575;40;20051;-63
2022/05/26 01:34:24;;;;;;;13.40;4.40;;;;;;;15.80;71.10;101528.13;3576727;40;20138;-63
2022/05/26 01:37:04;;;;;;;9.13;3.30;;;;;;;15.80;71.02;101526.28;3581562;40;20402;-63
2022/05/26 01:39:46;;;;;;;11.32;3.95;;;;;;;15.61;71.37;101501.44;3574998;40;20150;-63
2022/05/26 01:43:00;;;;;;;12.35;4.20;;;;;;;15.77;71.66;101527.34;3578710;40;20059;-63
2022/05/26 01:45:57;;;;;;;9.60;4.00;;;;;;;15.77;71.55;101537.34;3579392;40;20319;-63
2022/05/26 01:48:31;;;;;;;10.75;4.50;;;;;;;15.77;71.74;101537.34;3579618;40;20241;-63
2022/05/26 01:51:38;;;;;;;9.07;4.10;;;;;;;15.78;71.37;101542.63;3574895;40;20055;-63
2022/05/26 01:54:18;;;;;;;7.43;4.05;;;;;;;15.80;71.76;101549.81;3577843;40;20052;-63
2022/05/26 01:56:50;;;;;;;14.63;4.80;;;;;;;15.79;71.68;101546.22;3575276;40;20514;-63
2022/05/26 01:59:30;;;;;;;12.85;4.80;;;;;;;15.74;71.79;101545.69;3579974;40;20303;-63
2022/05/26 02:02:24;;;;;;;10.77;5.20;;;;;;;15.78;71.52;101555.31;3574376;40;20121;-63
2022/05/26 02:05:07;;;;;;;7.90;5.00;;;;;;;15.80;71.70;101547.97;3578939;40;20298;-63
2022/05/26 02:07:55;;;;;;;13.98;5.90;;;;;;;15.74;71.51;101542.97;3575724;40;20423;-63
2022/05/26 02:10:54;;;;;;;10.85;6.35;;;;;;;15.77;71.61;101556.31;3574626;40;20060;-63
2022/05/26 02:13:38;;;;;;;12.65;6.07;;;;;;;15.78;71.67;101555.31;3570215;40;20054;-63
2022/05/26 02:16:17;;;;;;;11.40;6.43;;;;;;;15.76;71.77;101562.69;3580641;40;20061;-63
2022/05/26 02:18:56;;;;;;;12.15;6.53;;;;;;;15.75;71.91;101560.97;3573941;40;20386;-63
2022/05/26 02:22:05;;;;;;;12.02;6.50;;;;;;;15.75;71.74;101567.25;3575850;40;20433;-63
2022/05/26 02:25:03;;;;;;;11.88;5.97;;;;;;;15.72;71.80;101570.19;3576467;40;20068;-63
2022/05/26 02:27:32;;;;;;;11.07;5.93;;;;;;;15.76;71.31;101576.25;3577868;40;20060;-63
2022/05/26 02:30:00;;;;;;;13.68;6.40;;;;;;;15.71;71.52;101562.19;3575157;40;20060;-63
2022/05/26 02:32:39;;;;;;;13.73;6.20;;;;;;;15.73;71.77;101565.63;3581098;40;20051;-63
2022/05/26 02:35:16;;;;;;;15.15;6.57;;;;;;;15.76;71.87;101578.97;3581403;40;20410;-63
2022/05/26 02:37:48;;;;;;;15.90;6.60;;;;;;;15.74;71.63;101584.50;3580423;40;20060;-64
2022/05/26 02:40:15;;;;;;;15.13;7.07;;;;;;;15.75;72.00;101579.94;3578742;40;20053;-62
2022/05/26 02:43:10;;;;;;;14.85;6.63;;;;;;;15.58;71.72;101550.44;3576748;40;20267;-61
2022/05/26 02:46:17;;;;;;;16.10;6.10;;;;;;;15.73;71.69;101576.47;3579881;40;20078;-63
2022/05/26 02:49:33;;;;;;;16.75;6.38;;;;;;;15.73;71.82;101581.88;3579037;40;20052;-62
2022/05/26 02:52:18;;;;;;;12.60;6.53;;;;;;;15.69;71.77;101588.50;3570619;40;20045;-63
2022/05/26 02:55:10;;;;;;;13.95;6.72;;;;;;;15.68;72.04;101592.22;3576482;40;20078;-63
2022/05/26 02:58:09;;;;;;;14.85;7.00;;;;;;;15.66;72.11;101586.84;3574293;40;20056;-62
2022/05/26 03:01:06;;;;;;;16.17;6.68;;;;;;;15.68;71.99;101584.06;3575657;40;20048;-62
2022/05/26 03:04:20;;;;;;;10.25;6.50;;;;;;;15.63;72.30;101578.06;3576185;40;20053;-63
2022/05/26 03:06:54;;;;;;;;;;;;;;;15.60;72.27;101591.84;3575728;40;20053;-62
2022/05/26 03:09:21;;;;;;;18.48;7.45;;;;;;;15.60;72.65;101586.41;3576951;40;20294;-63
2022/05/26 03:11:55;;;;;;;19.13;7.35;;;;;;;15.59;72.56;101595.53;3578976;40;20387;-63
2022/05/26 03:14:23;;;;;;;15.15;7.68;;;;;;;15.59;72.42;101592.81;3575694;40;20065;-63
2022/05/26 03:16:49;;;;;;;22.02;7.85;;;;;;;15.59;72.76;101592.81;3574346;40;20055;-63
2022/05/26 03:19:15;;;;;;;15.95;8.07;;;;;;;15.58;72.47;101594.69;3578071;40;20048;-63
2022/05/26 03:21:40;;;;;;;23.27;7.80;;;;;;;15.56;72.39;101594.75;3577962;40;20290;-63
2022/05/26 03:24:08;;;;;;;20.67;7.57;;;;;;;15.44;72.65;101573.94;3577713;40;20126;-62
2022/05/26 03:26:34;;;;;;;16.50;7.07;;;;;;;15.54;72.59;101594.03;3577260;40;20053;-63
2022/05/26 03:29:00;;;;;;;17.35;7.57;;;;;;;15.56;72.72;101608.31;3581133;40;20088;-63
2022/05/26 03:31:26;;;;;;;20.33;8.18;;;;;;;15.55;72.53;101606.59;3579297;40;20134;-63
2022/05/26 03:42:13;;;;;;;20.85;7.80;;;;;;;15.47;72.92;101619.78;3577097;40;20371;-64
2022/05/26 03:44:39;;;;;;;18.80;7.13;;;;;;;15.48;72.82;101626.97;3577280;40;20310;-63
2022/05/26 03:47:05;;;;;;;20.50;6.65;;;;;;;15.44;72.83;101620.00;3583509;40;20048;-63
2022/05/26 03:49:31;;;;;;;16.13;6.95;;;;;;;15.46;72.69;101620.78;3577229;40;20391;-63
2022/05/26 03:51:57;;;;;;;19.15;6.78;;;;;;;15.44;73.09;101613.72;3577025;40;20053;-63
2022/05/26 03:54:24;;;;;;;19.52;7.13;;;;;;;15.46;72.61;101623.50;3575759;40;20056;-63
2022/05/26 03:56:50;;;;;;;18.73;7.13;;;;;;;15.45;73.01;101632.59;3578678;40;20357;-63
2022/05/26 03:59:15;;;;;;;17.58;7.50;;;;;;;15.42;72.90;101627.41;3577185;40;20052;-63
2022/05/26 04:01:41;;;;;;;26.67;7.13;;;;;;;15.40;72.71;101634.75;3575685;40;20056;-63
2022/05/26 04:04:07;;;;;;;17.50;6.43;;;;;;;15.35;73.07;101630.63;3577782;40;20112;-64
2022/05/26 04:06:33;;;;;;;16.58;6.22;;;;;;;15.18;73.47;101615.53;3576587;40;20158;-64
2022/05/26 04:08:59;;;;;;;16.67;6.68;;;;;;;15.28;73.36;101641.00;3577886;40;20056;-63
2022/05/26 04:11:25;;;;;;;21.58;6.82;;;;;;;15.22;73.74;101631.50;3577022;40;20388;-63
2022/05/26 04:13:53;;;;;;;22.17;6.97;;;;;;;15.00;73.71;101604.13;3583165;40;20430;-63
2022/05/26 04:16:20;;;;;;;14.38;6.18;;;;;;;15.17;73.88;101649.03;3581227;40;20090;-63
2022/05/26 04:18:46;;;;;;;20.85;7.10;;;;;;;15.14;74.15;101644.69;3577348;40;20064;-63
2022/05/26 04:21:14;;;;;;;23.02;6.65;;;;;;;15.16;74.54;101653.56;3576102;40;20082;-62
2022/05/26 04:23:40;;;;;;;20.52;6.75;;;;;;;15.15;74.28;101659.09;3576955;40;20056;-63
2022/05/26 04:26:08;;;;;;;19.95;7.18;;;;;;;15.15;74.62;101662.66;3579326;40;20056;-63
2022/05/26 04:28:35;;;;;;;14.73;6.63;;;;;;;15.10;74.29;101648.56;3578656;40;20069;-63
2022/05/26 04:31:03;;;;;;;20.48;6.82;;;;;;;15.15;74.08;101662.66;3582326;40;20368;-62
2022/05/26 04:33:29;;;;;;;21.27;6.80;;;;;;;15.17;74.38;101660.72;3578446;40;20087;-62
2022/05/26 04:35:56;;;;;;;19.77;7.15;;;;;;;15.21;74.41;101666.78;3576048;40;20056;-62
2022/05/26 04:38:23;;;;;;;22.40;6.97;;;;;;;15.23;74.04;101659.44;3577021;40;20056;-63
2022/05/26 04:41:06;;;;;;;24.38;7.20;;;;;;;15.23;73.86;101668.44;3579727;40;20067;-63
2022/05/26 04:43:34;;;;;;;17.90;6.70;;;;;;;15.22;74.12;101661.28;3573702;40;20052;-63
2022/05/26 04:46:02;;;;;;;16.52;6.20;;;;;;;15.16;74.06;101658.09;3581695;40;20366;-63
2022/05/26 04:48:28;;;;;;;20.30;6.78;;;;;;;15.24;73.94;101661.16;3587746;40;20118;-63
2022/05/26 04:50:54;;;;;;;17.15;6.65;;;;;;;14.81;74.29;101589.16;3579781;40;20338;-63
2022/05/26 04:53:20;;;;;;;19.92;7.00;;;;;;;15.22;73.77;101671.22;3582043;40;20063;-62
2022/05/26 04:55:46;;;;;;;17.35;6.18;;;;;;;15.26;73.94;101680.91;3575915;40;20064;-64
2022/05/26 04:58:11;;;;;;;22.45;7.43;;;;;;;15.25;74.05;101682.72;3577999;40;20056;-63
2022/05/26 05:00:37;;;;;;;18.60;5.95;;;;;;;15.32;73.64;101691.31;3577379;40;20040;-62
2022/05/26 05:03:03;;;;;;;13.43;6.07;;;;;;;15.32;73.62;101691.31;3579732;40;20056;-63
2022/05/26 05:05:29;;;;;;;22.73;6.97;;;;;;;15.37;73.81;101702.69;3581053;40;20091;-63
2022/05/26 05:07:54;;;;;;;19.65;5.97;;;;;;;15.41;73.82;101704.22;3577382;40;20381;-62
2022/05/26 05:10:20;;;;;;;21.27;6.40;;;;;;;15.43;73.45;101705.00;3576437;40;20055;-62
2022/05/26 05:12:49;;;;;;;17.67;6.45;;;;;;;15.47;73.56;101701.09;3577034;40;20053;-62
2022/05/26 05:15:24;;;;;;;27.10;7.28;;;;;;;15.49;72.82;101709.13;3576161;40;20045;-63
2022/05/26 05:17:49;;;;;;;21.08;6.43;;;;;;;15.49;73.19;101707.28;3605202;22;20053;-65
2022/05/26 05:20:15;;;;;;;23.27;6.45;;;;;;;15.53;73.13;101708.78;3566801;40;20060;-64
2022/05/26 05:23:02;;;;;;;24.48;7.25;;;;;;;15.49;73.61;101709.13;3573882;40;20126;-66
2022/05/26 05:25:38;;;;;;;22.70;7.28;;;;;;;15.59;72.98;101704.81;3566720;40;20060;-64
2022/05/26 05:28:21;;;;;;;20.77;6.60;;;;;;;15.70;72.51;101717.66;3563950;40;20053;-64
2022/05/26 05:30:56;;;;;;;23.20;6.75;;;;;;;15.71;72.15;101722.09;3565908;40;20053;-65
2022/05/26 05:33:32;;;;;;;18.38;6.25;;;;;;;15.76;72.10;101738.91;3569917;40;20057;-64
2022/05/26 05:36:12;;;;;;;18.33;6.30;;;;;;;15.80;72.67;101726.91;3565689;40;20061;-64
2022/05/26 05:38:40;;;;;;;19.63;5.88;;;;;;;15.77;72.45;101729.81;3571200;40;20044;-64
2022/05/26 05:41:09;;;;;;;18.92;6.95;;;;;;;15.85;72.04;101729.28;3565358;40;20107;-64
2022/05/26 05:43:37;;;;;;;19.02;6.85;;;;;;;15.80;72.09;101709.75;3566970;40;20127;-64
2022/05/26 05:46:04;;;;;;;17.80;6.00;;;;;;;15.92;71.84;101736.88;3568483;40;20366;-64
2022/05/26 05:48:30;;;;;;;20.63;6.00;;;;;;;15.95;71.65;101731.25;3565574;40;20144;-64
2022/05/26 05:50:56;;;;;;;23.02;6.00;;;;;;;16.00;71.93;101731.78;3566169;40;20056;-64
2022/05/26 05:53:22;;;;;;;20.67;6.55;;;;;;;16.01;71.09;101741.63;3564045;40;20293;-65
2022/05/26 05:55:47;;;;;;;19.90;6.72;;;;;;;16.02;70.88;101743.41;3572249;40;20059;-64
2022/05/26 05:58:13;;;;;;;16.42;5.78;;;;;;;16.07;71.22;101739.47;3564479;40;20056;-64
2022/05/26 06:00:42;;;;;;;25.63;6.38;;;;;;;16.10;71.53;101742.84;3567644;40;20041;-64
2022/05/26 06:03:08;;;;;;;19.95;6.22;;;;;;;16.10;70.92;101739.28;3569245;40;20112;-64
2022/05/26 06:05:35;;;;;;;20.13;6.30;;;;;;;16.22;70.74;101751.97;3571973;40;20065;-64
2022/05/26 06:08:02;;;;;;;17.30;6.10;;;;;;;16.29;70.96;101749.69;3572308;40;20066;-65
2022/05/26 06:10:31;;;;;;;21.45;6.32;;;;;;;16.37;70.47;101759.03;3571844;40;20061;-63
2022/05/26 06:12:57;;;;;;;20.88;6.10;;;;;;;16.41;69.71;101757.81;3574830;40;20058;-63
2022/05/26 06:15:24;;;;;;;18.73;6.35;;;;;;;16.46;70.24;101761.09;3569313;40;20381;-64
2022/05/26 06:17:49;;;;;;;20.67;6.57;;;;;;;16.51;69.64;101768.88;3570424;40;20053;-63
2022/05/26 06:20:15;;;;;;;18.35;6.53;;;;;;;16.58;70.21;101764.75;3571625;40;20055;-66
2022/05/26 06:22:47;;;;;;;17.92;6.82;;;;;;;16.52;68.98;101737.19;3568842;40;20041;-65
2022/05/26 06:25:16;;;;;;;23.05;6.60;;;;;;;16.57;68.99;101754.00;3569634;40;20068;-63
2022/05/26 06:30:30;;;;;;;20.30;7.78;;;;;;;16.75;68.39;101777.16;3574998;40;20191;-64
2022/05/26 06:38:33;;;;;;;20.20;7.95;;;;;;;17.23;66.98;101779.94;3567257;40;20127;-64
2022/05/26 06:42:05;;;;;;;22.20;8.18;;;;;;;17.16;67.10;101762.38;3565415;40;20059;-65
2022/05/26 06:43:48;;;;;;;21.17;9.38;;;;;;;17.35;65.82;101794.47;3568731;40;20354;-63
2022/05/26 06:46:15;;;;;;;21.17;9.52;;;;;;;17.32;66.40;101791.97;3570238;40;20064;-65
2022/05/26 06:48:41;;;;;;;21.25;10.07;;;;;;;17.26;66.18;101782.44;3567643;40;20340;-64
2022/05/26 06:51:07;;;;;;;17.70;8.55;;;;;;;17.34;66.33;101795.44;3566588;40;20061;-65
2022/05/26 06:53:33;;;;;;;21.88;9.77;;;;;;;17.36;65.61;101801.63;3565688;40;20482;-64
2022/05/26 06:55:59;;;;;;;20.15;10.00;;;;;;;17.37;65.63;101800.63;3567177;40;20050;-64
2022/05/26 06:58:26;;;;;;;18.25;8.55;;;;;;;17.38;65.36;101803.25;3567548;40;20064;-64
2022/05/26 07:00:52;;;;;;;21.92;9.52;;;;;;;17.42;64.89;101813.91;3567350;40;20052;-63
2022/05/26 07:03:18;;;;;;;19.40;8.80;;;;;;;17.52;65.26;101804.06;3569069;40;20379;-65
2022/05/26 07:05:44;;;;;;;19.38;9.52;;;;;;;17.61;64.68;101809.66;3569386;40;20115;-65
2022/05/26 07:08:09;;;;;;;22.50;9.00;;;;;;;17.83;64.22;101813.50;3565383;40;20060;-64
2022/05/26 07:10:35;;;;;;;23.35;9.00;;;;;;;17.83;63.53;101816.22;3565300;40;20068;-65
2022/05/26 07:13:02;;;;;;;16.35;7.95;;;;;;;17.88;63.41;101815.84;3565672;40;20122;-66
2022/05/26 07:15:28;;;;;;;19.33;8.75;;;;;;;17.94;63.08;101823.56;3566797;40;20122;-64
2022/05/26 07:17:54;;;;;;;21.27;8.75;;;;;;;17.97;63.05;101820.59;3567722;40;20056;-65
2022/05/26 07:20:20;;;;;;;16.02;8.85;;;;;;;18.03;62.55;101831.88;3570796;40;20126;-64
2022/05/26 07:22:45;;;;;;;16.60;8.60;;;;;;;17.97;61.74;101826.03;3571645;40;20056;-64
2022/05/26 07:25:11;;;;;;;16.98;9.55;;;;;;;18.02;61.99;101829.28;3569720;40;20387;-64
2022/05/26 07:27:37;;;;;;;19.90;8.77;;;;;;;18.17;62.39;101827.19;3568968;40;20379;-64
2022/05/26 07:30:05;;;;;;;13.63;7.53;;;;;;;18.12;60.90;101835.75;3570610;40;20080;-65
2022/05/26 07:32:31;;;;;;;16.05;7.55;;;;;;;18.06;61.21;101834.34;3567925;40;20057;-65
2022/05/26 07:34:56;;;;;;;14.65;7.05;;;;;;;18.14;60.92;101833.78;3567463;40;20323;-65
2022/05/26 07:42:55;;;;;;;14.43;7.05;;;;;;;18.37;59.46;101840.13;3568099;40;20371;-64
2022/05/26 07:45:22;;;;;;;16.40;7.28;;;;;;;18.39;59.83;101849.03;3566184;40;20045;-65
2022/05/26 07:47:47;;;;;;;14.18;7.68;;;;;;;18.49;60.06;101849.16;3570877;40;20053;-65
2022/05/26 07:50:21;;;;;;;16.60;8.32;;;;;;;18.59;59.66;101850.19;3567722;40;20056;-66
2022/05/26 07:52:49;;;;;;;17.83;9.18;;;;;;;18.59;59.33;101844.75;3571735;40;20048;-65
2022/05/26 07:55:16;;;;;;;16.35;8.60;;;;;;;18.58;59.54;101845.72;3568408;40;20470;-64
2022/05/26 07:57:42;;;;;;;16.42;7.80;;;;;;;18.48;60.13;101842.84;3566428;40;20342;-64
2022/05/26 08:00:08;;;;;;;16.70;7.88;;;;;;;18.44;59.60;101846.81;3567160;40;20071;-65
2022/05/26 08:02:34;;;;;;;16.98;8.75;;;;;;;18.28;60.45;101846.28;3568260;40;20052;-64
2022/05/26 08:04:59;;;;;;;17.77;8.02;;;;;;;18.26;61.00;101850.97;3565373;40;20045;-64
2022/05/26 08:07:25;;;;;;;14.85;7.38;;;;;;;18.44;59.94;101851.41;3564673;40;20045;-64
2022/05/26 08:09:50;;;;;;;12.77;6.40;;;;;;;18.52;58.55;101849.81;3564997;40;20095;-64
2022/05/26 08:12:16;;;;;;;14.10;7.00;;;;;;;18.55;59.17;101854.13;3569895;40;20372;-64
2022/05/26 08:14:44;;;;;;;13.68;7.85;;;;;;;18.48;58.76;101853.75;3564519;40;20057;-66
2022/05/26 08:17:18;;;;;;;15.35;8.48;;;;;;;18.45;59.67;101864.88;3564495;40;20197;-64
2022/05/26 08:19:44;;;;;;;15.07;8.00;;;;;;;18.65;59.37;101866.06;3568297;40;20410;-64
2022/05/26 08:22:09;;;;;;;11.80;6.75;;;;;;;19.01;57.74;101855.94;3567898;40;20064;-65
2022/05/26 08:24:35;;;;;;;12.55;7.13;;;;;;;19.38;57.04;101853.78;3567292;40;20146;-65
2022/05/26 08:27:01;;;;;;;11.73;6.82;;;;;;;19.60;55.46;101858.34;3567046;40;20056;-64
2022/05/26 08:29:27;;;;;;;12.65;7.00;;;;;;;19.86;56.04;101861.63;3572971;40;20057;-65
2022/05/26 08:31:53;;;;;;;12.07;7.20;;;;;;;19.94;55.26;101860.94;3568144;40;20087;-66
2022/05/26 08:34:20;;;;;;;15.73;7.88;;;;;;;20.31;54.99;101871.47;3567388;40;20430;-66
2022/05/26 08:36:46;;;;;;;12.18;7.13;;;;;;;20.37;52.87;101879.97;3558204;40;20060;-63
2022/05/26 08:39:13;;;;;;;12.45;6.63;;;;;;;20.31;53.56;101875.06;3566705;40;20053;-64
2022/05/26 08:41:48;;;;;;;9.02;5.90;;;;;;;20.13;53.28;101865.72;3568438;40;20546;-64
2022/05/26 08:44:29;;;;;;;14.38;6.15;;;;;;;20.33;53.54;101880.38;3566299;40;20127;-64
2022/05/26 08:47:09;;;;;;;13.52;6.60;;;;;;;20.68;52.76;101876.47;3571328;40;20395;-64
2022/05/26 08:49:59;;;;;;;18.33;11.43;;;;;;;20.81;52.04;101882.59;3568801;40;20041;-65
2022/05/26 08:52:34;;;;;;;15.95;11.52;;;;;;;20.99;51.34;101875.47;3567483;40;20095;-62
2022/05/26 08:55:08;;;;;;;14.95;11.55;;;;;;;21.12;52.21;101868.91;3567011;40;20053;-64
2022/05/26 08:57:58;;;;;;;15.85;12.18;;;;;;;21.60;50.21;101881.88;3569258;40;20056;-64
2022/05/26 09:00:25;;;;;;;13.48;9.57;;;;;;;21.86;49.76;101884.97;3562141;40;20041;-65
2022/05/26 09:02:58;;;;;;;13.52;9.95;;;;;;;21.57;49.17;101885.78;3568567;40;20056;-65
2022/05/26 09:05:28;;;;;;;14.38;9.80;;;;;;;21.20;49.74;101889.09;3566507;40;20088;-65
2022/05/26 09:13:43;;;;;;;14.98;12.07;;;;;;;21.13;50.24;101895.25;3571412;40;20343;-65
2022/05/26 09:16:11;;;;;;;14.95;10.85;;;;;;;21.42;49.51;101893.53;3565934;40;20071;-65
2022/05/26 09:18:38;;;;;;;14.70;9.80;;;;;;;21.63;48.40;101893.44;3567209;40;20060;-64
2022/05/26 09:21:15;;;;;;;13.20;9.90;;;;;;;21.64;48.58;101891.56;3571859;40;20065;-64
2022/05/26 09:23:43;;;;;;;16.77;10.80;;;;;;;21.71;48.73;101885.38;3564485;40;20045;-64
2022/05/26 09:26:17;;;;;;;13.95;10.50;;;;;;;21.57;48.44;101896.72;3566946;40;20425;-65
2022/05/26 09:28:52;;;;;;;17.15;10.95;;;;;;;21.23;49.35;101885.22;3565809;40;20056;-65
2022/05/26 09:31:34;;;;;;;16.05;11.52;;;;;;;20.96;49.56;101889.41;3568132;40;20084;-64
2022/05/26 09:34:24;;;;;;;18.50;11.73;;;;;;;21.28;49.62;101905.69;3568329;40;20048;-65
2022/05/26 09:37:00;;;;;;;16.75;10.38;;;;;;;21.09;48.21;101914.69;3571360;40;20068;-64
2022/05/26 09:39:43;;;;;;;15.55;10.02;;;;;;;20.89;48.97;101911.97;3563996;40;20359;-64
2022/05/26 09:42:20;;;;;;;13.40;10.30;;;;;;;20.74;50.46;101915.06;3567910;40;20069;-64
2022/05/26 09:45:14;;;;;;;11.73;9.57;;;;;;;20.83;50.30;101891.50;3567679;40;20053;-64
2022/05/26 09:47:54;;;;;;;13.20;8.77;;;;;;;20.90;47.93;101903.66;3569707;40;20049;-65
2022/05/26 09:50:47;;;;;;;11.00;7.25;;;;;;;20.76;48.93;101923.97;3567477;40;20052;-64
2022/05/26 09:53:28;;;;;;;12.60;8.88;;;;;;;20.50;49.52;101926.22;3567360;40;20060;-64
2022/05/26 09:55:55;;;;;;;13.95;9.73;;;;;;;20.36;50.73;101929.25;3565527;40;20053;-65
2022/05/26 09:58:39;;;;;;;12.45;9.65;;;;;;;20.26;51.34;101926.44;3565657;40;20115;-64
2022/05/26 10:01:43;;;;;;;9.95;8.90;;;;;;;20.74;49.58;101925.09;3568501;40;20053;-64
2022/05/26 10:04:45;;;;;;;11.05;7.65;;;;;;;21.16;47.54;101916.88;3566123;40;20055;-64
2022/05/26 10:07:58;;;;;;;10.30;8.13;;;;;;;21.13;47.76;101928.06;3566111;40;20123;-65
2022/05/26 10:10:38;;;;;;;12.63;8.65;;;;;;;21.00;48.36;101931.91;3572084;40;20064;-64
2022/05/26 10:13:48;;;;;;;12.88;7.70;;;;;;;20.68;47.48;101840.94;3565633;40;21108;-64
2022/05/26 10:16:29;;;;;;;9.20;4.90;;;;;;;21.48;45.94;101919.47;3566037;40;20324;-64
2022/05/26 10:19:38;;;;;;;9.63;5.95;;;;;;;21.42;46.49;101929.09;3567644;40;20044;-64
2022/05/26 10:22:24;;;;;;;7.18;5.80;;;;;;;21.36;47.27;101935.09;3566000;40;20081;-65
2022/05/26 10:25:20;;;;;;;10.85;7.07;;;;;;;21.16;48.00;101942.34;3567453;40;20048;-65
2022/05/26 10:28:08;;;;;;;11.75;7.18;;;;;;;21.37;48.11;101934.09;3567485;40;20088;-65
2022/05/26 10:30:55;;;;;;;9.07;6.05;;;;;;;21.80;46.53;101924.72;3566940;40;20049;-64
2022/05/26 10:33:53;;;;;;;9.98;6.50;;;;;;;22.01;44.71;101943.75;3565563;40;20089;-64
2022/05/26 10:36:47;;;;;;;10.70;6.60;;;;;;;22.01;45.29;101930.94;3567742;40;20064;-64
2022/05/26 10:39:59;;;;;;;10.20;6.15;;;;;;;21.86;46.17;101932.38;3563297;40;20049;-64
2022/05/26 10:42:31;;;;;;;10.65;6.45;;;;;;;21.97;48.31;101926.75;3567593;40;20053;-64
2022/05/26 10:45:18;;;;;;;9.35;6.43;;;;;;;22.38;46.09;101930.25;3569346;40;20060;-63
2022/05/26 10:48:15;;;;;;;7.55;5.50;;;;;;;22.71;44.19;101920.72;3565661;40;20331;-64
2022/05/26 10:50:50;;;;;;;9.50;5.50;;;;;;;23.03;44.23;101922.25;3566249;40;20055;-64
2022/05/26 10:53:34;;;;;;;7.47;4.78;;;;;;;23.20;44.44;101919.72;3554383;40;20049;-64
2022/05/26 10:56:26;;;;;;;7.75;4.47;;;;;;;23.33;44.18;101932.06;3567915;40;20040;-65
2022/05/26 10:59:11;;;;;;;8.98;4.97;;;;;;;23.33;43.32;101909.25;3570498;40;20052;-65
2022/05/26 11:01:45;;;;;;;8.05;4.63;;;;;;;22.93;43.69;101925.00;3574170;40;20052;-64
2022/05/26 11:04:32;;;;;;;8.57;4.50;;;;;;;22.48;44.89;101938.47;3565855;40;20060;-65
2022/05/26 11:07:06;;;;;;;8.02;4.45;;;;;;;22.53;45.13;101949.00;3565591;40;20061;-65
2022/05/26 11:09:49;;;;;;;6.20;4.47;;;;;;;22.72;45.35;101938.00;3568930;40;20057;-64
2022/05/26 11:12:36;;;;;;;7.22;4.22;;;;;;;23.13;44.02;101927.69;3568811;40;20326;-65
2022/05/26 11:19:32;;;;;;;8.82;5.35;;;;;;;22.67;44.23;101943.06;3549558;40;20101;-65
2022/05/26 11:22:01;;;;;;;12.15;5.60;;;;;;;22.92;44.14;101934.19;3534409;40;20093;-64
2022/05/26 11:24:28;;;;;;;12.40;5.43;;;;;;;23.07;43.68;101950.22;3635501;23;20103;-62
2022/05/26 11:27:14;;;;;;;10.05;5.15;;;;;;;22.87;43.75;101932.94;3573564;40;20307;-62
2022/05/26 11:29:56;;;;;;;8.23;5.03;;;;;;;22.71;42.94;101937.16;3575062;40;20057;-62
2022/05/26 11:38:30;;;;;;;11.43;5.90;;;;;;;22.02;44.37;101926.34;3571836;40;20295;-63
2022/05/26 11:41:06;;;;;;;7.85;5.25;;;;;;;21.83;45.57;101924.44;3572421;40;20065;-62
2022/05/26 11:43:59;;;;;;;11.77;6.18;;;;;;;21.55;45.46;101926.09;3573327;40;20041;-63
2022/05/26 11:46:44;;;;;;;9.48;5.10;;;;;;;21.28;46.58;101929.41;3574195;40;20056;-63
2022/05/26 11:49:45;;;;;;;9.02;5.40;;;;;;;21.13;47.44;101926.19;3571764;40;20379;-63
2022/05/26 11:52:58;;;;;;;9.85;5.18;;;;;;;21.25;47.27;101913.28;3574318;40;20049;-63
2022/05/26 11:55:49;;;;;;;7.00;5.05;;;;;;;21.74;46.37;101909.72;3572923;40;20065;-62
2022/05/26 11:58:36;;;;;;;8.63;5.80;;;;;;;21.70;45.03;101912.91;3572512;40;20057;-64
2022/05/26 12:01:23;;;;;;;10.52;5.70;;;;;;;21.65;45.69;101904.22;3573151;40;20228;-64
2022/05/26 12:03:54;;;;;;;7.07;5.10;;;;;;;21.62;45.81;101902.63;3573828;40;20061;-64
2022/05/26 12:06:39;;;;;;;8.90;4.40;;;;;;;22.01;44.29;101919.09;3570820;40;20491;-63
2022/05/26 12:09:17;;;;;;;11.52;4.05;;;;;;;22.50;43.47;101910.94;3574739;40;20051;-63
2022/05/26 12:12:21;;;;;;;8.45;3.78;;;;;;;22.97;42.57;101903.63;3574848;40;20337;-63
2022/05/26 12:14:51;;;;;;;8.73;3.63;;;;;;;22.98;41.40;101888.91;3574433;40;20383;-63
2022/05/26 12:17:37;;;;;;;9.98;3.60;;;;;;;22.64;43.56;101904.97;3570210;40;20044;-64
2022/05/26 12:20:11;;;;;;;10.00;3.55;;;;;;;22.46;44.29;101905.75;3573267;40;20111;-64
2022/05/26 12:22:52;;;;;;;9.48;3.08;;;;;;;22.92;43.92;101895.81;3573457;40;20331;-63
2022/05/26 12:25:25;;;;;;;9.80;3.05;;;;;;;23.53;42.34;101893.53;3568901;40;20056;-63
2022/05/26 12:27:54;;;;;;;;;;;;;;;23.79;40.95;101886.34;3576344;40;20049;-62
2022/05/26 12:30:46;;;;;;;7.15;3.22;;;;;;;23.78;40.81;101887.34;3574031;40;19939;-65
2022/05/26 12:33:20;;;;;;;9.40;3.33;;;;;;;23.79;41.65;101890.97;3573374;40;20061;-63
2022/05/26 12:36:26;;;;;;;8.05;3.00;;;;;;;23.40;42.07;101889.28;3572837;40;20406;-63